Time;durP1;ratioP1;P1;durP2;ratioP2;P2;SDS_P1;SDS_P2;PMS_P1;PMS_P2;Temp;Humidity;BMP_temperature;BMP_pressure;BME280_temperature;BME280_humidity;BME280_pressure;Samples;Min_cycle;Max_cycle;Signal;HPM_P1;HPM_P2
2022/04/04 00:02:14;;;;;;;5.87;4.70;;;;;;;0.57;nan;99034.47;4991862;28;20034;-65
2022/04/04 00:04:40;;;;;;;8.90;5.53;;;;;;;0.49;nan;99027.50;4992191;28;20033;-61
2022/04/04 00:07:06;;;;;;;6.60;4.47;;;;;;;0.54;nan;99015.88;4988983;28;20081;-62
2022/04/04 00:09:31;;;;;;;7.07;5.30;;;;;;;0.62;nan;99027.88;4988223;28;20439;-61
2022/04/04 00:11:57;;;;;;;8.73;4.87;;;;;;;0.44;nan;99014.75;4990560;28;20085;-61
2022/04/04 00:14:24;;;;;;;6.80;5.00;;;;;;;0.45;nan;99026.56;4989880;28;20041;-63
2022/04/04 00:16:50;;;;;;;5.80;5.20;;;;;;;0.47;nan;99029.97;4987794;28;20458;-63
2022/04/04 00:19:15;;;;;;;6.73;4.90;;;;;;;0.42;nan;99029.00;4988658;28;20358;-62
2022/04/04 00:21:41;;;;;;;7.20;4.93;;;;;;;0.47;nan;99024.09;4990682;28;20151;-61
2022/04/04 00:24:07;;;;;;;7.87;5.10;;;;;;;0.47;nan;99024.09;4991172;28;20030;-61
2022/04/04 00:26:33;;;;;;;9.40;5.60;;;;;;;0.42;nan;99029.00;4988904;28;20034;-63
2022/04/04 00:28:58;;;;;;;7.00;5.40;;;;;;;0.37;nan;99021.31;4989559;28;20650;-62
2022/04/04 00:31:24;;;;;;;7.63;5.57;;;;;;;0.40;nan;99025.56;4992543;28;20065;-62
2022/04/04 00:33:49;;;;;;;6.43;5.33;;;;;;;0.38;nan;99019.66;4990961;28;20037;-61
2022/04/04 00:36:16;;;;;;;7.73;4.77;;;;;;;0.42;nan;99022.28;4989008;28;20097;-61
2022/04/04 00:38:41;;;;;;;7.23;4.90;;;;;;;0.22;nan;99002.38;4989408;28;20178;-62
2022/04/04 00:41:13;;;;;;;6.83;5.13;;;;;;;0.30;nan;99021.09;4991087;28;20034;-60
2022/04/04 00:43:39;;;;;;;5.97;5.27;;;;;;;0.22;nan;99009.94;4990062;28;20030;-61
2022/04/04 00:46:04;;;;;;;6.37;5.67;;;;;;;0.24;nan;99011.72;4987642;28;20519;-62
2022/04/04 00:48:30;;;;;;;5.53;4.23;;;;;;;0.22;nan;99025.91;4990105;28;20076;-62
2022/04/04 00:50:56;;;;;;;7.07;4.80;;;;;;;0.27;nan;99023.53;4991062;28;20057;-60
2022/04/04 00:53:22;;;;;;;7.07;5.00;;;;;;;0.27;nan;99031.09;4991085;28;20033;-61
2022/04/04 00:55:47;;;;;;;5.80;4.30;;;;;;;0.18;nan;99024.13;4988867;28;20038;-62
2022/04/04 00:58:14;;;;;;;6.67;5.20;;;;;;;0.11;nan;99014.69;4991126;28;20027;-62
2022/04/04 01:00:41;;;;;;;9.47;4.80;;;;;;;0.13;nan;99017.28;4990166;28;20522;-62
2022/04/04 01:03:06;;;;;;;8.00;5.30;;;;;;;0.10;nan;99027.25;4987948;28;20030;-61
2022/04/04 01:05:32;;;;;;;6.30;4.93;;;;;;;0.13;nan;99027.34;4988088;28;20415;-62
2022/04/04 01:07:58;;;;;;;7.93;4.80;;;;;;;0.01;nan;99020.28;4988669;28;20030;-63
2022/04/04 01:10:23;;;;;;;6.37;5.30;;;;;;;-0.04;nan;99021.81;4993447;28;20034;-62
2022/04/04 01:12:51;;;;;;;7.60;4.93;;;;;;;-0.04;nan;99020.13;4992799;28;20033;-63
2022/04/04 01:15:16;;;;;;;5.77;4.57;;;;;;;-0.04;nan;99021.81;4992436;28;20523;-63
2022/04/04 01:17:42;;;;;;;7.83;5.07;;;;;;;-0.02;nan;99025.22;4994230;28;20033;-62
2022/04/04 01:20:08;;;;;;;6.90;4.43;;;;;;;0.06;nan;99015.38;4995665;28;20644;-61
2022/04/04 01:22:34;;;;;;;5.87;4.40;;;;;;;0.00;nan;99019.41;4995470;28;20026;-60
2022/04/04 01:24:59;;;;;;;6.23;4.60;;;;;;;-0.04;nan;99019.28;4991907;28;20503;-60
2022/04/04 01:27:25;;;;;;;6.97;4.53;;;;;;;-0.17;nan;99023.09;4995354;28;20206;-61
2022/04/04 01:29:50;;;;;;;8.00;5.23;;;;;;;-0.22;nan;99026.31;4994119;28;20473;-62
2022/04/04 01:32:15;;;;;;;6.33;4.57;;;;;;;-0.15;nan;99023.16;4990857;28;20026;-61
2022/04/04 01:34:41;;;;;;;8.03;6.03;;;;;;;-0.23;nan;99027.13;4992082;28;20517;-62
2022/04/04 01:37:07;;;;;;;9.83;5.57;;;;;;;-0.29;nan;99009.28;4993911;28;20034;-62
2022/04/04 01:39:32;;;;;;;5.80;4.93;;;;;;;-0.17;nan;99018.06;4994266;28;20487;-61
2022/04/04 01:41:58;;;;;;;7.53;5.50;;;;;;;-0.27;nan;99021.16;4992449;28;20034;-61
2022/04/04 01:44:23;;;;;;;7.33;5.70;;;;;;;-0.37;nan;99010.72;4990512;28;20069;-62
2022/04/04 01:46:49;;;;;;;8.67;5.97;;;;;;;-0.39;nan;99023.31;4993570;28;20038;-62
2022/04/04 01:49:14;;;;;;;8.17;6.00;;;;;;;-0.35;nan;99019.22;4992097;28;20034;-62
2022/04/04 01:51:40;;;;;;;8.63;5.63;;;;;;;-0.51;nan;99021.25;4991198;28;20037;-60
2022/04/04 01:54:05;;;;;;;8.03;5.67;;;;;;;-0.70;nan;99000.50;4992452;28;20065;-61
2022/04/04 01:56:32;;;;;;;8.77;5.63;;;;;;;-0.82;nan;99000.97;4993579;28;21202;-61
2022/04/04 01:58:59;;;;;;;10.27;5.87;;;;;;;-0.82;nan;99007.66;4992902;28;20034;-61
2022/04/04 02:01:25;;;;;;;6.93;5.70;;;;;;;-0.78;nan;99017.03;4992380;28;20038;-61
2022/04/04 02:03:56;;;;;;;7.27;5.93;;;;;;;-0.78;nan;99017.88;5007909;28;20385;-61
2022/04/04 02:06:22;;;;;;;6.00;4.73;;;;;;;-0.88;nan;99007.47;4993040;28;20082;-61
2022/04/04 02:08:48;;;;;;;9.33;5.40;;;;;;;-0.85;nan;99000.88;4992131;28;20027;-62
2022/04/04 02:11:16;;;;;;;7.93;4.90;;;;;;;-0.80;nan;99009.41;4991997;28;20485;-62
2022/04/04 02:13:42;;;;;;;7.67;5.63;;;;;;;-0.86;nan;99013.41;4991475;28;20567;-62
2022/04/04 02:16:08;;;;;;;6.80;5.47;;;;;;;-1.14;nan;98987.34;4992796;28;20501;-62
2022/04/04 02:18:34;;;;;;;7.23;5.53;;;;;;;-1.16;nan;98996.53;4989504;28;20340;-62
2022/04/04 02:21:00;;;;;;;6.20;4.87;;;;;;;-1.21;nan;99000.53;4990596;28;20151;-62
2022/04/04 02:23:26;;;;;;;8.43;6.07;;;;;;;-1.22;nan;99000.47;4992823;28;20587;-61
2022/04/04 02:25:53;;;;;;;8.93;6.10;;;;;;;-1.28;nan;98996.13;4992493;28;20424;-61
2022/04/04 02:28:19;;;;;;;11.17;6.53;;;;;;;-1.35;nan;99000.88;4991997;28;20046;-63
2022/04/04 02:30:46;;;;;;;8.27;6.00;;;;;;;-1.26;nan;99014.63;4988611;28;20085;-61
2022/04/04 02:33:12;;;;;;;10.43;5.97;;;;;;;-1.22;nan;99010.53;4993367;28;20061;-61
2022/04/04 02:35:38;;;;;;;9.47;6.00;;;;;;;-1.38;nan;98997.47;4992515;28;20116;-61
2022/04/04 02:38:03;;;;;;;9.50;5.93;;;;;;;-1.32;nan;99011.91;4990008;28;20046;-61
2022/04/04 02:40:29;;;;;;;10.50;7.23;;;;;;;-1.38;nan;99011.69;4990377;28;20419;-61
2022/04/04 02:42:56;;;;;;;9.17;6.37;;;;;;;-1.49;nan;99010.47;4991593;28;20034;-62
2022/04/04 02:45:22;;;;;;;11.17;6.50;;;;;;;-1.65;nan;98993.13;4992337;28;20443;-62
2022/04/04 02:47:48;;;;;;;11.37;6.50;;;;;;;-1.61;nan;99010.06;4989236;28;20034;-62
2022/04/04 02:50:14;;;;;;;12.90;7.30;;;;;;;-1.66;nan;98997.34;4992894;28;20546;-62
2022/04/04 02:52:40;;;;;;;9.27;6.47;;;;;;;-1.68;nan;99003.94;4992634;28;20376;-62
2022/04/04 02:57:51;;;;;;;10.68;6.93;;;;;;;-1.59;nan;99003.41;4990478;28;20083;-62
2022/04/04 03:00:19;;;;;;;11.00;7.00;;;;;;;-1.67;nan;99002.28;4991186;28;20546;-62
2022/04/04 03:02:45;;;;;;;12.10;7.20;;;;;;;-1.66;nan;99019.94;4992743;28;20141;-61
2022/04/04 03:05:11;;;;;;;13.03;9.07;;;;;;;-1.60;nan;99019.28;4991813;28;20030;-61
2022/04/04 03:07:36;;;;;;;11.73;8.53;;;;;;;-1.72;nan;99002.13;4989838;28;20695;-61
2022/04/04 03:10:03;;;;;;;11.97;8.03;;;;;;;-1.75;nan;98996.16;4990923;28;20115;-61
2022/04/04 03:12:29;;;;;;;10.00;7.53;;;;;;;-1.71;nan;99018.06;4992623;28;20030;-61
2022/04/04 03:14:54;;;;;;;11.30;7.90;;;;;;;-1.75;nan;99008.72;4990881;28;20057;-62
2022/04/04 03:17:19;;;;;;;14.00;7.97;;;;;;;-1.81;nan;99003.47;4990888;28;20030;-62
2022/04/04 03:19:45;;;;;;;11.87;7.77;;;;;;;-1.73;nan;99009.59;4993401;28;20030;-62
2022/04/04 03:22:10;;;;;;;9.57;6.53;;;;;;;-1.83;nan;99010.97;4996455;28;20034;-62
2022/04/04 03:24:36;;;;;;;13.50;7.50;;;;;;;-1.95;nan;98993.78;4993492;28;20423;-62
2022/04/04 03:27:01;;;;;;;16.40;11.03;;;;;;;-1.84;nan;99004.22;4990531;28;20054;-62
2022/04/04 03:29:26;;;;;;;14.53;9.30;;;;;;;-1.98;nan;98982.75;4992765;28;20044;-61
2022/04/04 03:31:53;;;;;;;13.83;8.10;;;;;;;-1.91;nan;99008.16;4991117;28;20135;-60
2022/04/04 03:34:18;;;;;;;16.00;10.47;;;;;;;-1.93;nan;98998.84;4987599;28;20031;-61
2022/04/04 03:36:44;;;;;;;16.63;10.13;;;;;;;-1.96;nan;98996.25;4989883;28;20507;-60
2022/04/04 03:39:12;;;;;;;14.00;9.77;;;;;;;-1.93;nan;98994.69;4992068;28;20097;-61
2022/04/04 03:41:38;;;;;;;18.13;11.87;;;;;;;-1.99;nan;98996.13;4991913;28;20464;-60
2022/04/04 03:44:06;;;;;;;20.23;9.97;;;;;;;-2.02;nan;98986.81;4989834;28;20113;-62
2022/04/04 03:46:32;;;;;;;14.93;10.07;;;;;;;-2.10;nan;98973.16;4988723;28;20045;-60
2022/04/04 03:48:57;;;;;;;13.70;8.27;;;;;;;-2.05;nan;98991.75;4992188;28;20478;-62
2022/04/04 03:51:23;;;;;;;12.57;8.37;;;;;;;-2.03;nan;98979.22;4991721;28;20465;-62
2022/04/04 03:53:48;;;;;;;11.40;7.90;;;;;;;-1.97;nan;98985.34;4988966;28;20436;-61
2022/04/04 03:56:14;;;;;;;12.60;7.53;;;;;;;-2.07;nan;98985.78;4988593;28;20053;-61
2022/04/04 03:58:40;;;;;;;12.23;7.87;;;;;;;-2.08;nan;98984.09;4990240;28;20030;-62
2022/04/04 04:01:05;;;;;;;12.17;8.40;;;;;;;-2.14;nan;98976.34;4992097;28;20034;-61
2022/04/04 04:03:31;;;;;;;14.03;8.37;;;;;;;-2.11;nan;98983.13;4987362;28;20572;-61
2022/04/04 04:06:11;;;;;;;13.67;9.17;;;;;;;-2.14;nan;98985.53;4989497;28;20505;-61
2022/04/04 04:08:39;;;;;;;13.50;8.27;;;;;;;-2.12;nan;98984.78;4989641;28;20030;-62
2022/04/04 04:11:05;;;;;;;13.13;8.77;;;;;;;-2.16;nan;98989.63;4987365;28;20042;-61
2022/04/04 04:13:31;;;;;;;15.47;8.37;;;;;;;-2.29;nan;98979.97;4988640;28;20037;-62
2022/04/04 04:15:57;;;;;;;15.27;10.50;;;;;;;-2.31;nan;98984.91;4990013;28;20047;-62
2022/04/04 04:18:23;;;;;;;19.90;8.77;;;;;;;-2.26;nan;98985.09;4989825;28;20565;-61
2022/04/04 04:20:48;;;;;;;15.23;9.10;;;;;;;-2.37;nan;98977.13;4989294;28;20499;-62
2022/04/04 04:23:14;;;;;;;12.67;9.73;;;;;;;-2.40;nan;98982.91;4988861;28;20041;-61
2022/04/04 04:25:39;;;;;;;12.73;8.20;;;;;;;-2.57;nan;98978.06;4991137;28;20604;-62
2022/04/04 04:28:06;;;;;;;13.47;7.60;;;;;;;-2.43;nan;98987.81;4991966;28;20073;-61
2022/04/04 04:30:32;;;;;;;14.57;8.40;;;;;;;-2.48;nan;98991.81;4989573;28;20061;-62
2022/04/04 04:32:59;;;;;;;11.87;8.47;;;;;;;-2.49;nan;98989.25;4988213;28;20034;-62
2022/04/04 04:35:25;;;;;;;13.63;7.93;;;;;;;-2.54;nan;98970.63;4992207;28;20038;-61
2022/04/04 04:37:51;;;;;;;12.13;8.63;;;;;;;-2.44;nan;98990.28;4992346;28;20031;-60
2022/04/04 04:40:17;;;;;;;12.20;8.30;;;;;;;-2.41;nan;98985.34;4988306;28;20361;-61
2022/04/04 04:42:44;;;;;;;13.13;8.70;;;;;;;-2.51;nan;98969.13;4988967;28;20464;-60
2022/04/04 04:45:10;;;;;;;14.27;9.13;;;;;;;-2.40;nan;98989.59;4993201;28;20038;-60
2022/04/04 04:47:35;;;;;;;15.23;10.07;;;;;;;-2.34;nan;98983.16;4994980;28;20030;-60
2022/04/04 04:50:04;;;;;;;15.93;11.27;;;;;;;-2.44;nan;98975.22;4991406;28;20411;-60
2022/04/04 04:52:29;;;;;;;16.30;8.13;;;;;;;-2.39;nan;98968.72;4991449;28;20042;-62
2022/04/04 04:54:55;;;;;;;14.90;10.20;;;;;;;-2.32;nan;98991.59;4994517;28;20038;-59
2022/04/04 04:57:20;;;;;;;13.97;8.20;;;;;;;-2.33;nan;98971.44;4992760;28;20065;-61
2022/04/04 04:59:47;;;;;;;14.67;8.77;;;;;;;-2.32;nan;98974.00;4992315;28;20042;-60
2022/04/04 05:02:13;;;;;;;13.37;7.90;;;;;;;-2.14;nan;99001.47;4992592;28;20080;-61
2022/04/04 05:04:38;;;;;;;13.70;8.07;;;;;;;-2.15;nan;98984.66;4993794;28;20440;-61
2022/04/04 05:07:07;;;;;;;12.77;8.13;;;;;;;-2.11;nan;98975.59;4992478;28;20031;-61
2022/04/04 05:09:32;;;;;;;15.63;8.33;;;;;;;-1.93;nan;98997.22;4991324;28;20040;-62
2022/04/04 05:11:58;;;;;;;14.87;9.33;;;;;;;-1.95;nan;98987.88;4996179;28;20527;-60
2022/04/04 05:14:23;;;;;;;15.87;8.90;;;;;;;-1.83;nan;98987.50;4995783;28;20125;-62
2022/04/04 05:16:49;;;;;;;12.30;8.20;;;;;;;-1.75;nan;98997.00;4993469;28;20042;-60
2022/04/04 05:19:19;;;;;;;14.37;8.80;;;;;;;-1.67;nan;98997.28;4991970;28;20034;-60
2022/04/04 05:21:45;;;;;;;11.77;7.77;;;;;;;-1.57;nan;98996.81;4994186;28;20034;-60
2022/04/04 05:24:11;;;;;;;11.60;7.37;;;;;;;-1.60;nan;98984.09;4993664;28;20176;-62
2022/04/04 05:26:36;;;;;;;12.43;7.60;;;;;;;-1.48;nan;98997.09;4990144;28;20484;-61
2022/04/04 05:29:03;;;;;;;12.17;7.97;;;;;;;-1.39;nan;99002.44;4991700;28;20037;-61
2022/04/04 05:31:30;;;;;;;11.10;7.87;;;;;;;-1.27;nan;98995.28;4993254;28;20394;-61
2022/04/04 05:33:57;;;;;;;12.00;7.80;;;;;;;-1.19;nan;98996.41;4995406;28;20034;-60
2022/04/04 05:36:24;;;;;;;12.97;7.97;;;;;;;-1.05;nan;98992.69;4996746;28;20039;-60
2022/04/04 05:38:50;;;;;;;13.23;7.80;;;;;;;-0.94;nan;99010.66;4993082;28;20476;-61
2022/04/04 05:41:17;;;;;;;13.47;7.53;;;;;;;-0.86;nan;99008.38;4995189;28;20025;-61
2022/04/04 05:43:44;;;;;;;12.90;7.63;;;;;;;-0.76;nan;99008.69;4992914;28;20421;-62
2022/04/04 05:46:13;;;;;;;9.30;7.37;;;;;;;-0.50;nan;99005.34;4991885;28;20034;-61
2022/04/04 05:48:39;;;;;;;10.90;7.40;;;;;;;-0.41;nan;98987.13;4992239;28;20401;-62
2022/04/04 05:51:05;;;;;;;9.00;6.80;;;;;;;-0.21;nan;99006.19;4991784;28;20030;-61
2022/04/04 05:53:30;;;;;;;10.27;7.37;;;;;;;0.00;nan;99016.91;4993652;28;20684;-62
2022/04/04 05:55:56;;;;;;;13.17;6.87;;;;;;;0.01;nan;98990.03;4992170;28;20030;-62
2022/04/04 05:58:21;;;;;;;11.27;7.00;;;;;;;0.30;nan;98994.22;4992650;28;20045;-62
2022/04/04 06:00:47;;;;;;;11.90;7.60;;;;;;;0.34;nan;99003.56;4991877;28;20034;-64
2022/04/04 06:03:13;;;;;;;8.60;6.40;;;;;;;0.49;nan;99002.28;4991812;28;20066;-63
2022/04/04 06:05:38;;;;;;;8.87;5.23;;;;;;;0.53;nan;98984.75;4996012;28;20381;-63
2022/04/04 06:08:04;;;;;;;7.87;5.20;;;;;;;0.55;nan;98987.31;4991144;28;20061;-63
2022/04/04 06:10:29;;;;;;;7.50;4.87;;;;;;;0.77;nan;99005.53;4991407;28;20037;-63
2022/04/04 06:12:54;;;;;;;8.67;6.20;;;;;;;0.86;nan;99005.78;4989792;28;20449;-63
2022/04/04 06:15:20;;;;;;;13.00;5.87;;;;;;;0.95;nan;99000.13;4990767;28;20046;-65
2022/04/04 06:17:45;;;;;;;6.23;5.07;;;;;;;1.09;nan;98997.94;4995909;28;20366;-64
2022/04/04 06:20:12;;;;;;;6.10;4.60;;;;;;;1.12;nan;98993.81;4992670;28;20376;-64
2022/04/04 06:22:41;;;;;;;8.40;5.40;;;;;;;1.10;nan;98987.88;4990180;28;20030;-64
2022/04/04 06:25:09;;;;;;;6.63;4.73;;;;;;;1.22;nan;98998.28;4989226;28;20764;-64
2022/04/04 06:27:35;;;;;;;8.87;5.07;;;;;;;1.29;nan;99001.78;4991520;28;20132;-63
2022/04/04 06:30:01;;;;;;;7.27;4.80;;;;;;;1.47;nan;99008.94;4991603;28;20050;-63
2022/04/04 06:32:27;;;;;;;7.23;5.17;;;;;;;1.40;nan;99007.09;4990080;28;20027;-64
2022/04/04 06:34:52;;;;;;;7.50;5.23;;;;;;;1.60;nan;99011.78;4989889;28;20022;-63
2022/04/04 06:37:18;;;;;;;7.03;4.67;;;;;;;1.67;nan;99008.56;4991567;28;20079;-64
2022/04/04 06:39:44;;;;;;;6.00;4.47;;;;;;;1.67;nan;98995.94;4989682;28;20300;-64
2022/04/04 06:42:09;;;;;;;5.73;4.70;;;;;;;1.79;nan;98986.06;4990203;28;20029;-64
2022/04/04 06:44:34;;;;;;;5.73;3.93;;;;;;;1.94;nan;98999.88;4992083;28;20120;-64
2022/04/04 06:47:00;;;;;;;7.07;4.10;;;;;;;1.91;nan;98994.75;4990136;28;20026;-64
2022/04/04 06:49:26;;;;;;;7.50;4.07;;;;;;;2.04;nan;98989.09;4990775;28;20518;-64
2022/04/04 06:51:52;;;;;;;7.27;5.57;;;;;;;1.99;nan;98978.94;4990675;28;20038;-64
2022/04/04 06:54:19;;;;;;;7.33;4.63;;;;;;;2.24;nan;98992.91;4990938;28;20499;-64
2022/04/04 06:56:47;;;;;;;6.30;4.53;;;;;;;2.35;nan;98988.91;4989516;28;20518;-64
2022/04/04 06:59:13;;;;;;;8.80;5.10;;;;;;;2.51;nan;98984.97;4990272;28;20145;-64
2022/04/04 07:01:39;;;;;;;4.40;4.00;;;;;;;2.66;nan;98986.13;4989226;28;20045;-64
2022/04/04 07:04:04;;;;;;;6.63;4.53;;;;;;;2.58;nan;98991.88;4990927;28;20034;-64
2022/04/04 07:06:30;;;;;;;7.77;5.00;;;;;;;2.86;nan;98986.47;4991650;28;20067;-64
2022/04/04 07:08:55;;;;;;;6.97;3.70;;;;;;;3.07;nan;98968.22;4989953;28;20100;-64
2022/04/04 07:11:21;;;;;;;5.37;3.57;;;;;;;3.33;nan;98987.22;4987678;28;20030;-64
2022/04/04 07:13:52;;;;;;;4.10;3.60;;;;;;;3.41;nan;98987.34;4990799;28;20458;-64
2022/04/04 07:16:17;;;;;;;4.43;2.97;;;;;;;3.33;nan;98966.09;4951200;28;1168835;-64
2022/04/04 07:18:43;;;;;;;4.70;3.80;;;;;;;3.57;nan;98969.84;4989913;28;20042;-64
2022/04/04 07:21:09;;;;;;;4.70;3.43;;;;;;;3.71;nan;98981.84;4990139;28;20145;-64
2022/04/04 07:23:35;;;;;;;5.87;4.13;;;;;;;3.79;nan;98968.44;4991681;28;20404;-64
2022/04/04 07:26:00;;;;;;;5.03;3.20;;;;;;;3.79;nan;98958.31;4991666;28;20497;-64
2022/04/04 07:28:26;;;;;;;4.40;3.37;;;;;;;3.67;nan;98968.28;4988887;28;20049;-60
2022/04/04 07:30:52;;;;;;;4.17;3.30;;;;;;;3.91;nan;98967.75;4990080;28;20152;-61
2022/04/04 07:33:18;;;;;;;3.53;3.23;;;;;;;3.79;nan;98972.66;4991300;28;20025;-61
2022/04/04 07:35:45;;;;;;;4.23;3.60;;;;;;;3.79;nan;98960.84;4994141;28;20042;-61
2022/04/04 07:38:11;;;;;;;3.30;2.97;;;;;;;3.84;nan;98971.91;4987399;28;20042;-64
2022/04/04 07:40:37;;;;;;;5.17;3.53;;;;;;;3.83;nan;98961.72;4989326;28;20061;-60
2022/04/04 07:43:03;;;;;;;7.00;3.57;;;;;;;3.76;nan;98968.41;4992632;28;20026;-60
2022/04/04 07:45:30;;;;;;;3.50;3.20;;;;;;;3.74;nan;98970.06;4990933;28;20503;-58
2022/04/04 07:47:58;;;;;;;5.50;3.63;;;;;;;3.88;nan;98967.72;4988209;28;20069;-61
2022/04/04 07:50:24;;;;;;;7.27;3.87;;;;;;;3.82;nan;98942.31;4989981;28;20048;-59
2022/04/04 07:52:50;;;;;;;5.30;3.40;;;;;;;3.95;nan;98954.28;4991784;28;20424;-59
2022/04/04 07:55:16;;;;;;;6.03;3.73;;;;;;;4.14;nan;98938.47;4991288;28;20087;-59
2022/04/04 07:57:42;;;;;;;7.47;3.63;;;;;;;4.45;nan;98944.72;4987679;28;20034;-59
2022/04/04 08:00:10;;;;;;;4.27;3.53;;;;;;;4.43;nan;98942.16;4990332;28;20120;-60
2022/04/04 08:02:35;;;;;;;3.60;3.17;;;;;;;4.14;nan;98918.16;4991428;28;20026;-60
2022/04/04 08:05:04;;;;;;;4.03;3.53;;;;;;;4.31;nan;98910.72;4990441;28;20542;-60
2022/04/04 08:07:29;;;;;;;4.07;3.33;;;;;;;4.49;nan;98937.16;4988300;28;20095;-60
2022/04/04 08:09:55;;;;;;;5.00;3.73;;;;;;;4.78;nan;98934.03;4990434;28;20471;-59
2022/04/04 08:12:25;;;;;;;4.77;3.47;;;;;;;4.85;nan;98936.63;4991206;28;20631;-59
2022/04/04 08:14:50;;;;;;;3.37;3.07;;;;;;;4.83;nan;98915.47;4989296;28;20613;-61
2022/04/04 08:17:15;;;;;;;4.67;3.50;;;;;;;4.78;nan;98926.41;4989382;28;20037;-61
2022/04/04 08:19:41;;;;;;;5.17;3.60;;;;;;;4.83;nan;98922.22;4990407;28;20052;-60
2022/04/04 08:22:06;;;;;;;3.93;3.63;;;;;;;4.89;nan;98932.41;4994977;28;20516;-61
2022/04/04 08:24:32;;;;;;;4.07;3.67;;;;;;;4.53;nan;98912.66;4993047;28;20123;-61
2022/04/04 08:26:57;;;;;;;5.07;4.00;;;;;;;4.69;nan;98921.25;4992240;28;20091;-60
2022/04/04 08:29:23;;;;;;;5.13;3.30;;;;;;;4.63;nan;98914.41;4995313;28;20054;-61
2022/04/04 08:31:49;;;;;;;5.07;3.90;;;;;;;4.55;nan;98909.28;4995988;28;20041;-59
2022/04/04 08:34:15;;;;;;;3.80;3.50;;;;;;;4.61;nan;98895.78;4992942;28;20129;-60
2022/04/04 08:36:41;;;;;;;4.40;3.40;;;;;;;4.76;nan;98920.44;4992397;28;20073;-61
2022/04/04 08:39:07;;;;;;;4.07;3.50;;;;;;;4.78;nan;98901.88;4992878;28;20107;-62
2022/04/04 08:41:33;;;;;;;4.70;3.20;;;;;;;4.83;nan;98915.47;4993211;28;20113;-60
2022/04/04 08:44:01;;;;;;;5.07;3.77;;;;;;;4.96;nan;98917.25;4991082;28;20472;-61
2022/04/04 08:46:27;;;;;;;6.20;3.53;;;;;;;5.33;nan;98909.88;5001550;28;20149;-61
2022/04/04 08:48:57;;;;;;;3.70;3.30;;;;;;;5.65;nan;98900.72;4994903;28;20056;-61
2022/04/04 08:51:23;;;;;;;4.70;3.60;;;;;;;5.74;nan;98898.22;4993871;28;20556;-60
2022/04/04 08:53:49;;;;;;;4.33;3.50;;;;;;;5.72;nan;98899.09;4993250;28;20384;-60
2022/04/04 08:56:15;;;;;;;6.17;3.07;;;;;;;5.76;nan;98890.63;4994388;28;20362;-59
2022/04/04 08:58:40;;;;;;;5.00;4.27;;;;;;;6.12;nan;98895.84;4994640;28;20042;-60
2022/04/04 09:01:06;;;;;;;8.23;6.10;;;;;;;6.24;nan;98878.06;4992719;28;20560;-61
2022/04/04 09:03:31;;;;;;;6.53;5.13;;;;;;;6.48;nan;98874.72;4991100;28;20040;-60
2022/04/04 09:06:02;;;;;;;5.93;4.97;;;;;;;6.78;nan;98882.41;4993469;28;20034;-60
2022/04/04 09:08:28;;;;;;;5.93;5.33;;;;;;;6.96;nan;98880.69;4994427;28;20627;-60
2022/04/04 09:10:57;;;;;;;8.43;5.57;;;;;;;7.04;nan;98859.44;4991295;28;20037;-59
2022/04/04 09:13:25;;;;;;;6.37;5.77;;;;;;;7.23;nan;98862.78;4993789;28;20678;-55
2022/04/04 09:16:02;;;;;;;5.37;4.73;;;;;;;7.44;nan;98870.41;4994021;28;20549;-60
2022/04/04 09:18:36;;;;;;;6.00;5.40;;;;;;;7.08;nan;98858.59;4992528;28;20503;-58
2022/04/04 09:21:03;;;;;;;6.32;5.38;;;;;;;7.42;nan;98851.72;4991294;28;20069;-61
2022/04/04 09:23:36;;;;;;;8.50;5.43;;;;;;;7.27;nan;98861.94;4992570;28;20046;-61
2022/04/04 09:26:02;;;;;;;5.70;5.07;;;;;;;7.53;nan;98860.16;4992466;28;20042;-61
2022/04/04 09:28:27;;;;;;;5.20;4.70;;;;;;;7.72;nan;98838.00;4991149;28;20042;-61
2022/04/04 09:31:07;;;;;;;5.77;5.17;;;;;;;8.10;nan;98848.00;4991708;28;20092;-61
2022/04/04 09:33:41;;;;;;;6.00;4.87;;;;;;;7.61;nan;98842.28;4993617;28;20788;-61
2022/04/04 09:36:07;;;;;;;7.13;5.57;;;;;;;7.45;nan;98827.88;4993280;28;20481;-61
2022/04/04 09:38:34;;;;;;;7.73;6.07;;;;;;;7.62;nan;98816.75;4992741;28;20069;-61
2022/04/04 09:41:27;;;;;;;6.33;5.40;;;;;;;7.99;nan;98830.19;4993702;28;20096;-61
2022/04/04 09:43:55;;;;;;;6.03;4.73;;;;;;;8.23;nan;98819.81;4993241;28;20093;-60
2022/04/04 09:46:20;;;;;;;8.67;5.47;;;;;;;8.09;nan;98802.91;4991131;28;20069;-60
2022/04/04 09:49:14;;;;;;;6.07;5.30;;;;;;;7.91;nan;98821.72;4990295;28;20117;-60
2022/04/04 09:51:42;;;;;;;10.07;6.10;;;;;;;8.07;nan;98805.44;4995267;28;20093;-60
2022/04/04 09:54:11;;;;;;;6.13;5.47;;;;;;;8.32;nan;98801.06;4993800;28;20536;-60
2022/04/04 09:56:36;;;;;;;6.43;4.97;;;;;;;8.59;nan;98803.41;4991010;28;20038;-59
2022/04/04 09:59:02;;;;;;;6.23;5.57;;;;;;;8.44;nan;98795.03;4991871;28;20512;-61
2022/04/04 10:01:30;;;;;;;6.43;4.77;;;;;;;8.28;nan;98784.88;4993656;28;20476;-60
2022/04/04 10:03:56;;;;;;;6.83;4.77;;;;;;;8.60;nan;98782.13;4993447;28;20026;-60
2022/04/04 10:06:27;;;;;;;5.90;4.77;;;;;;;8.68;nan;98788.00;4992006;28;20045;-60
2022/04/04 10:08:56;;;;;;;6.40;5.50;;;;;;;8.89;nan;98771.59;4992719;28;20030;-60
2022/04/04 10:11:23;;;;;;;6.10;5.20;;;;;;;8.58;nan;98765.09;4993093;28;20507;-60
2022/04/04 10:13:49;;;;;;;7.73;5.17;;;;;;;8.53;nan;98783.00;4991879;28;20156;-60
2022/04/04 10:16:16;;;;;;;6.80;4.97;;;;;;;8.60;nan;98769.34;4990258;28;20084;-60
2022/04/04 10:18:46;;;;;;;5.23;4.73;;;;;;;8.61;nan;98770.19;4992481;28;20026;-59
2022/04/04 10:21:12;;;;;;;7.47;5.27;;;;;;;8.87;nan;98764.84;4992799;28;20108;-60
2022/04/04 10:23:45;;;;;;;5.30;4.90;;;;;;;9.03;nan;98754.41;4990381;28;20033;-60
2022/04/04 10:26:14;;;;;;;6.67;5.43;;;;;;;9.09;nan;98754.34;4992380;28;20030;-59
2022/04/04 10:28:39;;;;;;;5.82;5.22;;;;;;;9.04;nan;98735.63;4993025;28;20038;-59
2022/04/04 10:31:12;;;;;;;6.23;5.63;;;;;;;9.15;nan;98741.50;4992170;28;20026;-60
2022/04/04 10:33:38;;;;;;;7.78;5.70;;;;;;;9.05;nan;98726.25;4989672;28;20049;-61
2022/04/04 10:36:12;;;;;;;6.40;5.63;;;;;;;8.83;nan;98728.19;4990277;28;20412;-60
2022/04/04 10:38:45;;;;;;;6.00;5.40;;;;;;;8.49;nan;98729.38;4995346;28;20081;-60
2022/04/04 10:41:14;;;;;;;6.38;5.72;;;;;;;8.19;nan;98726.19;4992388;28;20092;-59
2022/04/04 10:43:45;;;;;;;6.13;5.50;;;;;;;7.93;nan;98725.56;4991211;28;20026;-59
2022/04/04 10:46:17;;;;;;;6.87;5.27;;;;;;;8.17;nan;98717.72;4990586;28;20583;-60
2022/04/04 10:48:48;;;;;;;8.13;5.80;;;;;;;8.52;nan;98703.81;4993752;28;20589;-60
2022/04/04 10:51:17;;;;;;;8.53;5.90;;;;;;;8.77;nan;98709.53;4990237;28;20065;-59
2022/04/04 10:53:51;;;;;;;6.13;5.53;;;;;;;8.79;nan;98708.63;4989610;28;20026;-60
2022/04/04 10:56:23;;;;;;;6.43;5.83;;;;;;;8.92;nan;98679.53;4991907;28;20188;-60
2022/04/04 10:58:51;;;;;;;6.07;5.47;;;;;;;9.34;nan;98697.75;4992404;28;20101;-60
2022/04/04 11:01:19;;;;;;;6.27;5.73;;;;;;;9.48;nan;98673.69;4990404;28;20030;-60
2022/04/04 11:03:50;;;;;;;6.45;5.85;;;;;;;9.67;nan;98691.34;4992857;28;20383;-62
2022/04/04 11:09:15;;;;;;;6.60;5.78;;;;;;;9.85;nan;98685.94;4992260;28;20028;-61
2022/04/04 11:11:55;;;;;;;5.90;5.40;;;;;;;9.27;nan;98684.22;4990787;28;20092;-61
2022/04/04 11:14:26;;;;;;;6.45;5.80;;;;;;;9.45;nan;98665.22;4991925;28;20025;-60
2022/04/04 11:17:52;;;;;;;6.95;6.35;;;;;;;8.78;nan;98668.63;4991704;28;20029;-62
2022/04/04 11:20:21;;;;;;;9.40;6.30;;;;;;;9.26;nan;98661.19;4986965;28;20042;-61
2022/04/04 11:22:52;;;;;;;5.72;5.07;;;;;;;9.39;nan;98665.28;4987876;28;20034;-61
2022/04/04 11:25:19;;;;;;;7.82;6.38;;;;;;;9.51;nan;98665.97;4991838;28;20539;-62
2022/04/04 11:27:48;;;;;;;7.50;6.80;;;;;;;9.39;nan;98652.50;4990734;28;20092;-60
2022/04/04 11:30:20;;;;;;;8.18;6.30;;;;;;;9.75;nan;98641.72;4988740;28;20097;-61
2022/04/04 11:32:47;;;;;;;6.30;5.70;;;;;;;9.91;nan;98640.63;4990144;28;20053;-61
2022/04/04 11:35:23;;;;;;;8.57;6.38;;;;;;;10.27;nan;98636.59;4991209;28;20049;-60
2022/04/04 11:37:51;;;;;;;7.05;6.35;;;;;;;9.97;nan;98634.56;4991061;28;20049;-61
2022/04/04 11:40:19;;;;;;;6.72;6.03;;;;;;;9.25;nan;98639.88;4990371;28;20146;-61
2022/04/04 11:42:51;;;;;;;6.80;6.10;;;;;;;9.46;nan;98633.66;4989364;28;20049;-61
2022/04/04 11:45:25;;;;;;;6.35;5.47;;;;;;;9.62;nan;98623.16;4992081;28;20022;-60
2022/04/04 11:47:58;;;;;;;6.43;5.78;;;;;;;8.86;nan;98623.38;4989705;28;20034;-61
2022/04/04 11:50:30;;;;;;;7.45;6.53;;;;;;;8.63;nan;98615.13;4988829;28;20125;-61
2022/04/04 11:53:03;;;;;;;7.03;6.07;;;;;;;8.53;nan;98621.22;4998977;28;20113;-60
2022/04/04 11:55:31;;;;;;;6.50;5.90;;;;;;;9.16;nan;98597.38;4991165;28;20029;-61
2022/04/04 11:58:02;;;;;;;6.00;5.30;;;;;;;9.56;nan;98602.75;4987888;28;20117;-61
2022/04/04 12:00:31;;;;;;;6.78;6.15;;;;;;;9.20;nan;98599.91;4990431;28;20244;-61